Time;durP1;ratioP1;P1;durP2;ratioP2;P2;SDS_P1;SDS_P2;PMS_P1;PMS_P2;Temp;Humidity;BMP_temperature;BMP_pressure;BME280_temperature;BME280_humidity;BME280_pressure;Samples;Min_cycle;Max_cycle;Signal;HPM_P1;HPM_P2
2021/08/12 00:01:23;;;;;;;;;;;16.20;80.30;;;;;;5093323;28;19912;-64
2021/08/12 00:03:49;;;;;;;;;;;16.20;78.90;;;;;;5093270;28;19912;-65
2021/08/12 00:06:16;;;;;;;;;;;16.20;78.90;;;;;;5092952;28;19908;-65
2021/08/12 00:08:43;;;;;;;;;;;16.20;78.80;;;;;;5093047;28;19916;-66
2021/08/12 00:11:10;;;;;;;;;;;16.30;78.60;;;;;;5093275;28;19916;-65
2021/08/12 00:13:36;;;;;;;;;;;16.40;79.40;;;;;;5092790;28;19923;-65
2021/08/12 00:16:03;;;;;;;;;;;16.50;79.50;;;;;;5093277;28;19916;-66
2021/08/12 00:18:31;;;;;;;;;;;16.50;77.90;;;;;;5092949;28;19963;-66
2021/08/12 00:20:57;;;;;;;;;;;16.60;78.90;;;;;;5093007;28;19937;-66
2021/08/12 00:23:26;;;;;;;;;;;16.60;77.90;;;;;;5092974;28;19908;-64
2021/08/12 00:25:56;;;;;;;;;;;16.60;77.80;;;;;;5092634;28;19908;-66
2021/08/12 00:28:23;;;;;;;;;;;16.60;77.80;;;;;;5092634;28;19912;-65
2021/08/12 00:30:50;;;;;;;;;;;16.60;77.10;;;;;;5093143;28;20290;-66
2021/08/12 00:33:16;;;;;;;;;;;16.60;77.20;;;;;;5092789;28;19986;-66
2021/08/12 00:35:43;;;;;;;;;;;16.60;79.30;;;;;;5092887;28;19909;-66
2021/08/12 00:38:10;;;;;;;;;;;16.60;76.10;;;;;;5092791;28;20006;-66
2021/08/12 00:40:38;;;;;;;;;;;16.60;76.80;;;;;;5092629;28;20321;-66
2021/08/12 00:43:04;;;;;;;;;;;16.70;75.20;;;;;;5092555;28;20359;-66
2021/08/12 00:45:31;;;;;;;;;;;16.80;76.20;;;;;;5092393;28;20313;-66
2021/08/12 00:47:58;;;;;;;;;;;16.90;76.10;;;;;;5093101;28;20291;-66
2021/08/12 00:50:24;;;;;;;;;;;16.90;75.80;;;;;;5092629;28;20367;-66
2021/08/12 00:52:51;;;;;;;;;;;16.90;74.20;;;;;;5092537;28;19916;-66
2021/08/12 00:55:18;;;;;;;;;;;17.00;73.30;;;;;;5092734;28;19958;-66
2021/08/12 00:57:45;;;;;;;;;;;17.00;74.40;;;;;;5092186;28;19909;-66
2021/08/12 01:00:12;;;;;;;;;;;17.00;74.00;;;;;;5092490;28;19918;-67
2021/08/12 01:02:39;;;;;;;;;;;17.00;75.10;;;;;;5091973;28;19908;-68
2021/08/12 01:05:07;;;;;;;;;;;17.00;75.40;;;;;;5092468;28;19908;-67
2021/08/12 01:07:47;;;;;;;;;;;17.10;75.60;;;;;;5092391;28;19930;-64
2021/08/12 01:10:14;;;;;;;;;;;17.30;74.30;;;;;;5092419;28;19910;-66
2021/08/12 01:12:58;;;;;;;;;;;17.60;73.10;;;;;;5092225;28;20370;-64
2021/08/12 01:15:47;;;;;;;;;;;17.70;72.60;;;;;;5074438;28;19908;-66
2021/08/12 01:18:31;;;;;;;;;;;18.20;72.20;;;;;;5092500;28;19947;-65
2021/08/12 01:21:16;;;;;;;;;;;18.30;71.40;;;;;;5092466;28;20364;-65
2021/08/12 01:23:43;;;;;;;;;;;18.50;70.70;;;;;;5092305;28;19915;-65
2021/08/12 01:26:10;;;;;;;;;;;18.70;71.00;;;;;;5092348;28;19912;-65
2021/08/12 01:28:39;;;;;;;;;;;18.70;70.00;;;;;;5092146;28;19999;-66
2021/08/12 01:31:23;;;;;;;;;;;18.50;69.20;;;;;;5092069;28;19908;-65
2021/08/12 01:33:53;;;;;;;;;;;18.40;69.70;;;;;;5091837;28;19931;-65
2021/08/12 01:36:21;;;;;;;;;;;18.30;69.90;;;;;;5092078;28;19958;-65
2021/08/12 01:38:49;;;;;;;;;;;18.20;70.70;;;;;;5092225;28;19908;-65
2021/08/12 01:41:16;;;;;;;;;;;18.00;69.50;;;;;;5091874;28;19908;-66
2021/08/12 01:43:43;;;;;;;;;;;18.10;71.50;;;;;;5091760;28;19952;-65
2021/08/12 01:46:10;;;;;;;;;;;18.00;70.90;;;;;;5091759;28;19924;-65
2021/08/12 01:48:37;;;;;;;;;;;18.00;68.70;;;;;;5092108;28;20355;-65
2021/08/12 01:51:04;;;;;;;;;;;18.00;67.90;;;;;;5091828;28;19969;-65
2021/08/12 01:53:32;;;;;;;;;;;18.00;69.10;;;;;;5091834;28;19916;-66
2021/08/12 01:55:59;;;;;;;;;;;18.10;68.20;;;;;;5091976;28;20394;-66
2021/08/12 01:58:26;;;;;;;;;;;18.10;68.10;;;;;;5092069;28;19908;-66
2021/08/12 02:00:54;;;;;;;;;;;18.10;68.60;;;;;;5091727;28;19915;-65
2021/08/12 02:03:21;;;;;;;;;;;18.00;68.10;;;;;;5091822;28;19952;-65
2021/08/12 02:05:48;;;;;;;;;;;18.00;68.90;;;;;;5091382;28;19908;-66
2021/08/12 02:08:18;;;;;;;;;;;17.90;68.60;;;;;;5091845;28;19909;-65
2021/08/12 02:10:45;;;;;;;;;;;17.80;68.80;;;;;;5091695;28;19912;-66
2021/08/12 02:13:12;;;;;;;;;;;17.80;68.30;;;;;;5093454;28;19919;-66
2021/08/12 02:15:38;;;;;;;;;;;17.80;68.60;;;;;;5095241;28;19947;-66
2021/08/12 02:18:06;;;;;;;;;;;17.90;69.40;;;;;;5095413;28;19908;-66
2021/08/12 02:20:33;;;;;;;;;;;18.00;69.40;;;;;;5095519;28;19922;-65
2021/08/12 02:23:14;;;;;;;;;;;17.90;68.70;;;;;;5095031;28;20017;-67
2021/08/12 02:25:41;;;;;;;;;;;17.80;69.50;;;;;;5094955;28;20337;-66
2021/08/12 02:28:08;;;;;;;;;;;17.80;69.20;;;;;;5095155;28;19908;-66
2021/08/12 02:30:37;;;;;;;;;;;17.80;69.60;;;;;;5095393;28;19908;-66
2021/08/12 02:33:05;;;;;;;;;;;17.90;69.90;;;;;;5095022;28;19967;-65
2021/08/12 02:35:32;;;;;;;;;;;17.90;70.00;;;;;;5094956;28;19909;-64
2021/08/12 02:38:00;;;;;;;;;;;17.90;69.40;;;;;;5094869;28;19908;-64
2021/08/12 02:40:28;;;;;;;;;;;18.00;69.00;;;;;;5094852;28;19908;-64
2021/08/12 02:42:56;;;;;;;;;;;18.00;68.50;;;;;;5094708;28;19912;-65
2021/08/12 02:45:24;;;;;;;;;;;18.10;68.10;;;;;;5094901;28;20312;-66
2021/08/12 02:47:53;;;;;;;;;;;18.00;67.80;;;;;;5094297;28;19967;-66
2021/08/12 02:50:20;;;;;;;;;;;18.00;67.30;;;;;;5094454;28;19908;-67
2021/08/12 02:52:46;;;;;;;;;;;18.10;66.50;;;;;;5094318;28;20003;-64
2021/08/12 02:55:13;;;;;;;;;;;18.20;67.10;;;;;;5094708;28;19952;-66
2021/08/12 02:57:40;;;;;;;;;;;18.30;66.70;;;;;;5093005;28;20385;-66
2021/08/12 03:00:07;;;;;;;;;;;18.40;63.80;;;;;;5094927;28;19908;-66
2021/08/12 03:02:34;;;;;;;;;;;18.40;64.20;;;;;;5094301;28;19949;-65
2021/08/12 03:05:01;;;;;;;;;;;18.50;64.20;;;;;;5094371;28;19908;-66
2021/08/12 03:07:28;;;;;;;;;;;18.50;64.70;;;;;;5094381;28;20274;-65
2021/08/12 03:09:56;;;;;;;;;;;18.50;63.00;;;;;;5094424;28;19950;-65
2021/08/12 03:12:23;;;;;;;;;;;18.50;63.20;;;;;;5094189;28;20251;-66
2021/08/12 03:14:51;;;;;;;;;;;18.50;62.40;;;;;;5076212;28;19916;-65
2021/08/12 03:17:19;;;;;;;;;;;18.50;61.10;;;;;;5094511;28;20016;-65
2021/08/12 03:19:46;;;;;;;;;;;18.60;59.70;;;;;;5093962;28;19915;-65
2021/08/12 03:22:13;;;;;;;;;;;18.60;59.10;;;;;;5094317;28;19912;-66
2021/08/12 03:24:41;;;;;;;;;;;18.60;59.10;;;;;;5093482;28;19912;-66
2021/08/12 03:27:11;;;;;;;;;;;18.50;58.40;;;;;;5093901;28;20274;-66
2021/08/12 03:29:41;;;;;;;;;;;18.50;59.00;;;;;;5093813;28;19912;-65
2021/08/12 03:32:08;;;;;;;;;;;18.40;59.50;;;;;;5093859;28;19981;-65
2021/08/12 03:34:35;;;;;;;;;;;18.30;59.90;;;;;;5093886;28;19909;-66
2021/08/12 03:37:02;;;;;;;;;;;18.40;60.80;;;;;;5093743;28;20255;-67
2021/08/12 03:39:30;;;;;;;;;;;18.50;60.50;;;;;;5093857;28;20007;-66
2021/08/12 03:41:57;;;;;;;;;;;18.50;60.80;;;;;;5093616;28;20231;-66
2021/08/12 03:44:24;;;;;;;;;;;18.50;61.90;;;;;;5093465;28;19912;-66
2021/08/12 03:46:51;;;;;;;;;;;18.40;63.80;;;;;;5093655;28;20363;-66
2021/08/12 03:49:20;;;;;;;;;;;18.40;62.30;;;;;;5093675;28;20343;-66
2021/08/12 03:51:47;;;;;;;;;;;18.40;61.90;;;;;;5093228;28;20363;-65
2021/08/12 03:54:13;;;;;;;;;;;18.40;61.10;;;;;;5093314;28;19912;-64
2021/08/12 03:56:40;;;;;;;;;;;18.50;60.70;;;;;;5093169;28;20326;-65
2021/08/12 03:59:07;;;;;;;;;;;18.60;60.40;;;;;;5093246;28;20000;-64
2021/08/12 04:01:33;;;;;;;;;;;18.50;59.30;;;;;;5092895;28;19934;-66
2021/08/12 04:04:00;;;;;;;;;;;18.40;58.70;;;;;;5093319;28;19912;-65
2021/08/12 04:06:27;;;;;;;;;;;18.40;59.60;;;;;;5093211;28;19908;-65
2021/08/12 04:08:55;;;;;;;;;;;18.40;60.30;;;;;;5093402;28;19912;-64
2021/08/12 04:11:21;;;;;;;;;;;18.50;60.40;;;;;;5093295;28;19916;-65
2021/08/12 04:13:48;;;;;;;;;;;18.50;59.50;;;;;;5092794;28;19916;-65
2021/08/12 04:16:15;;;;;;;;;;;18.40;60.30;;;;;;5093256;28;20324;-66
2021/08/12 04:18:41;;;;;;;;;;;18.50;59.70;;;;;;5093030;28;19912;-65
2021/08/12 04:21:08;;;;;;;;;;;18.50;59.20;;;;;;5092969;28;19915;-65
2021/08/12 04:23:35;;;;;;;;;;;18.50;59.50;;;;;;5092750;28;19915;-64
2021/08/12 04:26:01;;;;;;;;;;;18.40;59.40;;;;;;5092792;28;19908;-65
2021/08/12 04:28:28;;;;;;;;;;;18.50;60.10;;;;;;5093155;28;20419;-64
2021/08/12 04:30:55;;;;;;;;;;;18.60;59.90;;;;;;5093007;28;20320;-65
2021/08/12 04:33:21;;;;;;;;;;;18.60;60.70;;;;;;5092752;28;20397;-65
2021/08/12 04:35:48;;;;;;;;;;;18.50;60.40;;;;;;5091923;28;20345;-64
2021/08/12 04:38:15;;;;;;;;;;;18.40;59.90;;;;;;5092694;28;19908;-65
2021/08/12 04:40:41;;;;;;;;;;;18.50;59.00;;;;;;5092452;28;19908;-66
2021/08/12 04:43:08;;;;;;;;;;;18.50;59.20;;;;;;5092710;28;19953;-65
2021/08/12 04:45:35;;;;;;;;;;;18.50;59.00;;;;;;5092154;28;19908;-65
2021/08/12 04:48:05;;;;;;;;;;;18.60;58.20;;;;;;5092801;28;19920;-66
2021/08/12 04:50:34;;;;;;;;;;;18.50;59.10;;;;;;5092642;28;19908;-66
2021/08/12 04:53:00;;;;;;;;;;;18.60;59.30;;;;;;5092523;28;19973;-65
2021/08/12 04:55:27;;;;;;;;;;;18.60;59.10;;;;;;5092386;28;19955;-66
2021/08/12 04:57:54;;;;;;;;;;;18.50;59.70;;;;;;5092238;28;19980;-66
2021/08/12 05:00:21;;;;;;;;;;;18.60;58.70;;;;;;5092400;28;20400;-66
2021/08/12 05:02:47;;;;;;;;;;;18.60;59.00;;;;;;5092261;28;19915;-65
2021/08/12 05:05:14;;;;;;;;;;;18.60;58.90;;;;;;5092375;28;19916;-65
2021/08/12 05:07:41;;;;;;;;;;;18.50;58.60;;;;;;5092296;28;19908;-66
2021/08/12 05:10:08;;;;;;;;;;;18.40;58.40;;;;;;5092125;28;19908;-66
2021/08/12 05:12:35;;;;;;;;;;;18.40;58.80;;;;;;5092466;28;20010;-65
2021/08/12 05:15:02;;;;;;;;;;;18.40;57.90;;;;;;5092598;28;19909;-65
2021/08/12 05:17:28;;;;;;;;;;;18.40;57.90;;;;;;5074371;28;19915;-66
2021/08/12 05:19:55;;;;;;;;;;;18.40;58.40;;;;;;5092341;28;19909;-65
2021/08/12 05:22:22;;;;;;;;;;;18.30;57.40;;;;;;5092394;28;19912;-65
2021/08/12 05:24:49;;;;;;;;;;;18.30;59.30;;;;;;5092367;28;19909;-66
2021/08/12 05:27:16;;;;;;;;;;;18.30;58.70;;;;;;5092055;28;19908;-66
2021/08/12 05:29:43;;;;;;;;;;;18.30;58.40;;;;;;5091932;28;19915;-66
2021/08/12 05:32:10;;;;;;;;;;;18.20;58.80;;;;;;5092248;28;19916;-65
2021/08/12 05:34:36;;;;;;;;;;;18.30;58.80;;;;;;5092320;28;20366;-66
2021/08/12 05:37:03;;;;;;;;;;;18.20;59.00;;;;;;5091948;28;20255;-65
2021/08/12 05:39:30;;;;;;;;;;;18.20;58.20;;;;;;5092148;28;19936;-66
2021/08/12 05:41:56;;;;;;;;;;;18.30;57.50;;;;;;5092116;28;19908;-65
2021/08/12 05:44:23;;;;;;;;;;;18.20;58.30;;;;;;5091936;28;19951;-66
2021/08/12 05:46:50;;;;;;;;;;;18.20;57.50;;;;;;5091732;28;20064;-65
2021/08/12 05:49:17;;;;;;;;;;;18.20;59.00;;;;;;5095703;28;19908;-66
2021/08/12 05:51:43;;;;;;;;;;;18.10;58.70;;;;;;5095867;28;19908;-65
2021/08/12 05:54:10;;;;;;;;;;;18.20;58.30;;;;;;5095933;28;20424;-64
2021/08/12 05:56:37;;;;;;;;;;;18.20;59.10;;;;;;5095570;28;19915;-66
2021/08/12 05:59:03;;;;;;;;;;;18.30;58.80;;;;;;5095678;28;19912;-65
2021/08/12 06:01:30;;;;;;;;;;;18.30;58.40;;;;;;5095614;28;19912;-65
2021/08/12 06:03:57;;;;;;;;;;;18.30;58.80;;;;;;5095679;28;19908;-64
2021/08/12 06:06:23;;;;;;;;;;;18.20;58.20;;;;;;5095926;28;19912;-64
2021/08/12 06:08:50;;;;;;;;;;;18.20;58.90;;;;;;5095677;28;19999;-64
2021/08/12 06:11:16;;;;;;;;;;;18.30;60.20;;;;;;5095522;28;19908;-64
2021/08/12 06:13:43;;;;;;;;;;;18.20;69.50;;;;;;5095171;28;19969;-65
2021/08/12 06:16:11;;;;;;;;;;;18.10;71.90;;;;;;5095412;28;19916;-65
2021/08/12 06:18:38;;;;;;;;;;;17.90;72.60;;;;;;5095606;28;19919;-64
2021/08/12 06:21:04;;;;;;;;;;;17.80;73.90;;;;;;5095475;28;19944;-65
2021/08/12 06:23:31;;;;;;;;;;;17.70;74.60;;;;;;5095293;28;20327;-64
2021/08/12 06:25:59;;;;;;;;;;;17.60;74.90;;;;;;5095174;28;19970;-64
2021/08/12 06:28:25;;;;;;;;;;;17.40;75.80;;;;;;5095298;28;20340;-65
2021/08/12 06:30:52;;;;;;;;;;;17.40;75.80;;;;;;5095170;28;20362;-65
2021/08/12 06:33:19;;;;;;;;;;;17.30;76.50;;;;;;5095365;28;19916;-64
2021/08/12 06:35:45;;;;;;;;;;;17.20;76.20;;;;;;5094936;28;19935;-64
2021/08/12 06:38:12;;;;;;;;;;;17.10;76.80;;;;;;5095140;28;19912;-65
2021/08/12 06:40:39;;;;;;;;;;;17.10;77.60;;;;;;5095003;28;19914;-65
2021/08/12 06:43:05;;;;;;;;;;;17.00;77.70;;;;;;5094849;28;19908;-65
2021/08/12 06:45:32;;;;;;;;;;;17.00;77.60;;;;;;5094646;28;19908;-64
2021/08/12 06:48:03;;;;;;;;;;;16.90;78.10;;;;;;5094879;28;19943;-65
2021/08/12 06:50:30;;;;;;;;;;;16.90;78.50;;;;;;5094599;28;20303;-64
2021/08/12 06:52:57;;;;;;;;;;;16.80;79.30;;;;;;5091739;28;19916;-65
2021/08/12 06:55:23;;;;;;;;;;;16.80;80.00;;;;;;5092625;28;20023;-64
2021/08/12 06:57:50;;;;;;;;;;;16.80;81.10;;;;;;5092607;28;19975;-65
2021/08/12 07:00:17;;;;;;;;;;;16.70;81.60;;;;;;5091672;28;20290;-65
2021/08/12 07:02:43;;;;;;;;;;;16.60;82.30;;;;;;5092507;28;19911;-66
2021/08/12 07:05:10;;;;;;;;;;;16.60;82.30;;;;;;5092247;28;19920;-65
2021/08/12 07:07:37;;;;;;;;;;;16.60;82.60;;;;;;5092471;28;19908;-66
2021/08/12 07:10:05;;;;;;;;;;;16.50;82.90;;;;;;5092202;28;19951;-66
2021/08/12 07:12:31;;;;;;;;;;;16.50;83.70;;;;;;5092073;28;20355;-65
2021/08/12 07:14:58;;;;;;;;;;;16.40;83.60;;;;;;5092693;28;19908;-65
2021/08/12 07:17:28;;;;;;;;;;;16.40;83.30;;;;;;5092022;28;19912;-65
2021/08/12 07:19:55;;;;;;;;;;;16.30;83.20;;;;;;5092059;28;19908;-65
2021/08/12 07:22:22;;;;;;;;;;;16.20;83.20;;;;;;5092096;28;19908;-65
2021/08/12 07:24:48;;;;;;;;;;;16.20;83.50;;;;;;5091830;28;20356;-65
2021/08/12 07:27:15;;;;;;;;;;;16.10;83.70;;;;;;5092123;28;19951;-65
2021/08/12 07:29:42;;;;;;;;;;;16.20;84.20;;;;;;5091950;28;19908;-65
2021/08/12 07:32:09;;;;;;;;;;;16.20;84.60;;;;;;5091361;28;19912;-65
2021/08/12 07:34:39;;;;;;;;;;;16.20;85.20;;;;;;5092007;28;19912;-66
2021/08/12 07:37:06;;;;;;;;;;;16.30;85.20;;;;;;5074324;28;20223;-65
2021/08/12 07:39:33;;;;;;;;;;;16.30;85.80;;;;;;5091209;28;19953;-65
2021/08/12 07:41:59;;;;;;;;;;;16.30;85.80;;;;;;5091758;28;19912;-65
2021/08/12 07:44:26;;;;;;;;;;;16.30;86.80;;;;;;5091439;28;19912;-65
2021/08/12 07:46:53;;;;;;;;;;;16.20;86.50;;;;;;5091550;28;20019;-64
2021/08/12 07:49:19;;;;;;;;;;;16.20;86.80;;;;;;5091597;28;19912;-66
2021/08/12 07:51:47;;;;;;;;;;;16.20;88.10;;;;;;5091330;28;19908;-66
2021/08/12 07:54:14;;;;;;;;;;;16.10;87.70;;;;;;5091295;28;20679;-66
2021/08/12 07:56:41;;;;;;;;;;;15.90;88.10;;;;;;5091144;28;19912;-67
2021/08/12 07:59:07;;;;;;;;;;;15.90;88.60;;;;;;5091505;28;19908;-66
2021/08/12 08:01:34;;;;;;;;;;;15.80;88.30;;;;;;5092238;28;19908;-66
2021/08/12 08:04:04;;;;;;;;;;;15.80;88.70;;;;;;5091819;28;19908;-65
2021/08/12 08:06:30;;;;;;;;;;;15.70;89.10;;;;;;5091552;28;19912;-65
2021/08/12 08:08:57;;;;;;;;;;;15.60;89.10;;;;;;5091677;28;19912;-65
2021/08/12 08:11:24;;;;;;;;;;;15.50;89.40;;;;;;5090806;28;19912;-64
2021/08/12 08:13:50;;;;;;;;;;;15.50;89.70;;;;;;5091014;28;19924;-65
2021/08/12 08:16:21;;;;;;;;;;;15.50;89.80;;;;;;5091375;28;20050;-65
2021/08/12 08:18:48;;;;;;;;;;;15.50;90.30;;;;;;5091602;28;20007;-65
2021/08/12 08:21:15;;;;;;;;;;;15.50;90.40;;;;;;5090999;28;19912;-64
2021/08/12 08:23:42;;;;;;;;;;;15.50;90.50;;;;;;5090707;28;20426;-65
2021/08/12 08:26:08;;;;;;;;;;;15.50;90.50;;;;;;5091063;28;19939;-64
2021/08/12 08:28:35;;;;;;;;;;;15.50;90.50;;;;;;5086142;28;19961;-66
2021/08/12 08:31:02;;;;;;;;;;;15.50;90.60;;;;;;5090914;28;19991;-65
2021/08/12 08:33:35;;;;;;;;;;;15.40;90.70;;;;;;5090664;28;19923;-66
2021/08/12 08:36:02;;;;;;;;;;;15.40;91.00;;;;;;5090859;28;19908;-65
2021/08/12 08:38:29;;;;;;;;;;;15.40;91.20;;;;;;5090859;28;20370;-65
2021/08/12 08:40:56;;;;;;;;;;;15.40;91.10;;;;;;5090128;28;19909;-65
2021/08/12 08:43:24;;;;;;;;;;;15.30;91.10;;;;;;5090046;28;20264;-65
2021/08/12 08:45:52;;;;;;;;;;;15.30;91.20;;;;;;5090244;28;19974;-64
2021/08/12 08:48:19;;;;;;;;;;;15.20;91.30;;;;;;5090491;28;19916;-66
2021/08/12 08:50:46;;;;;;;;;;;15.20;91.50;;;;;;5090633;28;19965;-65
2021/08/12 08:53:19;;;;;;;;;;;15.20;91.60;;;;;;5090150;28;19920;-64
2021/08/12 08:55:46;;;;;;;;;;;15.10;91.70;;;;;;5090070;28;19919;-65
2021/08/12 08:58:13;;;;;;;;;;;15.10;91.90;;;;;;5090052;28;19912;-65
2021/08/12 09:00:40;;;;;;;;;;;15.00;91.90;;;;;;5090053;28;19912;-64
2021/08/12 09:03:07;;;;;;;;;;;15.00;92.10;;;;;;5090484;28;19912;-64
2021/08/12 09:05:35;;;;;;;;;;;15.00;92.10;;;;;;5072864;28;19953;-65
2021/08/12 09:08:02;;;;;;;;;;;15.00;92.20;;;;;;5092371;28;19928;-64
2021/08/12 09:10:28;;;;;;;;;;;15.00;92.40;;;;;;5092365;28;19934;-64
2021/08/12 09:12:55;;;;;;;;;;;15.00;92.50;;;;;;5092401;28;20357;-64
2021/08/12 09:15:23;;;;;;;;;;;15.10;92.50;;;;;;5092300;28;19909;-65
2021/08/12 09:17:51;;;;;;;;;;;15.20;92.50;;;;;;5092139;28;20389;-64
2021/08/12 09:20:22;;;;;;;;;;;15.20;92.60;;;;;;5092388;28;19981;-65
2021/08/12 09:22:50;;;;;;;;;;;15.20;92.70;;;;;;5093981;28;19908;-64
2021/08/12 09:25:24;;;;;;;;;;;15.10;92.90;;;;;;5096419;28;19908;-64
2021/08/12 09:28:09;;;;;;;;;;;15.10;92.90;;;;;;5096147;28;19908;-65
2021/08/12 09:30:35;;;;;;;;;;;15.10;93.00;;;;;;5096611;28;19916;-66
2021/08/12 09:33:02;;;;;;;;;;;15.00;93.10;;;;;;5096377;28;19923;-65
2021/08/12 09:35:29;;;;;;;;;;;15.00;93.10;;;;;;5096292;28;19912;-65
2021/08/12 09:38:07;;;;;;;;;;;15.00;93.10;;;;;;5096382;28;19908;-65
2021/08/12 09:40:34;;;;;;;;;;;14.90;93.30;;;;;;5096071;28;19919;-65
2021/08/12 09:43:01;;;;;;;;;;;14.90;93.30;;;;;;5096367;28;19966;-65
2021/08/12 09:45:29;;;;;;;;;;;14.90;93.40;;;;;;5095881;28;20297;-64
2021/08/12 09:48:07;;;;;;;;;;;14.90;93.60;;;;;;5096158;28;20008;-64
2021/08/12 09:50:35;;;;;;;;;;;14.90;93.80;;;;;;5096093;28;19916;-66
2021/08/12 09:53:03;;;;;;;;;;;14.90;93.70;;;;;;5095685;28;19923;-65
2021/08/12 09:55:36;;;;;;;;;;;14.80;93.70;;;;;;5095697;28;20355;-65
2021/08/12 09:58:07;;;;;;;;;;;14.70;94.00;;;;;;5095962;28;19956;-66
2021/08/12 10:00:39;;;;;;;;;;;14.70;94.00;;;;;;5095796;28;20015;-65
2021/08/12 10:03:22;;;;;;;;;;;14.80;94.30;;;;;;5095726;28;19915;-65
2021/08/12 10:05:49;;;;;;;;;;;14.90;94.40;;;;;;5095542;28;19935;-66
2021/08/12 10:08:45;;;;;;;;;;;14.90;94.20;;;;;;5095706;28;19908;-65
2021/08/12 10:11:17;;;;;;;;;;;14.90;94.20;;;;;;5060111;28;20405;-66
2021/08/12 10:13:44;;;;;;;;;;;14.90;94.20;;;;;;5074964;28;19916;-67
2021/08/12 10:16:11;;;;;;;;;;;14.90;94.40;;;;;;5074799;28;19908;-66
2021/08/12 10:18:38;;;;;;;;;;;15.00;94.40;;;;;;5075035;28;19909;-65
2021/08/12 10:21:05;;;;;;;;;;;15.00;94.60;;;;;;5074511;28;19908;-65
2021/08/12 10:23:33;;;;;;;;;;;14.90;94.30;;;;;;5074741;28;19909;-66
2021/08/12 10:26:01;;;;;;;;;;;14.80;94.50;;;;;;5075087;28;19947;-66
2021/08/12 10:28:29;;;;;;;;;;;14.70;94.60;;;;;;5075441;28;19920;-66
2021/08/12 10:30:56;;;;;;;;;;;14.70;94.60;;;;;;5075048;28;19909;-65
2021/08/12 10:33:23;;;;;;;;;;;14.70;94.70;;;;;;5074489;28;20436;-65
2021/08/12 10:35:50;;;;;;;;;;;14.70;94.60;;;;;;5073369;28;19940;-66
2021/08/12 10:38:18;;;;;;;;;;;14.70;94.70;;;;;;5074655;28;19908;-65
2021/08/12 10:40:45;;;;;;;;;;;14.70;94.80;;;;;;5074709;28;20429;-65
2021/08/12 10:43:14;;;;;;;;;;;14.70;94.90;;;;;;5074715;28;19912;-65
2021/08/12 10:45:40;;;;;;;;;;;14.70;94.80;;;;;;5074280;28;20430;-65
2021/08/12 10:48:18;;;;;;;;;;;14.80;94.90;;;;;;5074808;28;19908;-65
2021/08/12 10:50:45;;;;;;;;;;;14.80;94.80;;;;;;5074137;28;19931;-65
2021/08/12 10:53:15;;;;;;;;;;;14.70;94.70;;;;;;5074282;28;19917;-65
2021/08/12 10:55:41;;;;;;;;;;;14.70;94.80;;;;;;5074246;28;19915;-65
2021/08/12 10:58:22;;;;;;;;;;;14.70;95.00;;;;;;5074628;28;19931;-65
2021/08/12 11:00:49;;;;;;;;;;;14.70;95.40;;;;;;5074541;28;19908;-64
2021/08/12 11:03:35;;;;;;;;;;;14.80;95.30;;;;;;5074481;28;20283;-65
2021/08/12 11:06:03;;;;;;;;;;;14.70;94.70;;;;;;5074017;28;19908;-66
2021/08/12 11:08:48;;;;;;;;;;;14.70;94.90;;;;;;5074087;28;19954;-65
2021/08/12 11:11:23;;;;;;;;;;;14.60;94.90;;;;;;5074341;28;20007;-65
2021/08/12 11:13:54;;;;;;;;;;;14.60;95.00;;;;;;5074115;28;19929;-65
2021/08/12 11:16:22;;;;;;;;;;;14.50;95.10;;;;;;5074074;28;19909;-65
2021/08/12 11:18:49;;;;;;;;;;;14.50;95.00;;;;;;5074200;28;19915;-65
2021/08/12 11:21:30;;;;;;;;;;;14.60;95.30;;;;;;5073507;28;19909;-65
2021/08/12 11:24:04;;;;;;;;;;;14.70;95.50;;;;;;5073925;28;19908;-64
2021/08/12 11:26:46;;;;;;;;;;;14.60;95.50;;;;;;5073957;28;19908;-65
2021/08/12 11:29:23;;;;;;;;;;;14.60;95.60;;;;;;5073906;28;20378;-65
2021/08/12 11:31:49;;;;;;;;;;;14.60;95.30;;;;;;5073738;28;20853;-66
2021/08/12 11:34:19;;;;;;;;;;;14.50;95.20;;;;;;5073884;28;19916;-66
2021/08/12 11:37:04;;;;;;;;;;;14.50;95.20;;;;;;5073056;28;20256;-65
2021/08/12 11:39:30;;;;;;;;;;;14.60;95.00;;;;;;5073323;28;19909;-66
2021/08/12 11:41:58;;;;;;;;;;;14.50;95.00;;;;;;5073715;28;19908;-65
2021/08/12 11:44:25;;;;;;;;;;;14.50;95.00;;;;;;5073390;28;19908;-64
2021/08/12 11:46:52;;;;;;;;;;;14.50;94.90;;;;;;5072865;28;19924;-65
2021/08/12 11:49:19;;;;;;;;;;;14.40;94.70;;;;;;5073927;28;19908;-65
2021/08/12 11:51:46;;;;;;;;;;;14.30;94.90;;;;;;5072460;28;20397;-65
2021/08/12 11:54:33;;;;;;;;;;;14.20;95.40;;;;;;5073206;28;20411;-65
2021/08/12 11:56:59;;;;;;;;;;;14.10;95.50;;;;;;5073358;28;19915;-66
2021/08/12 11:59:27;;;;;;;;;;;14.10;95.40;;;;;;5073124;28;19915;-65
2021/08/12 12:01:54;;;;;;;;;;;14.00;95.30;;;;;;5073019;28;19909;-64
2021/08/12 12:04:30;;;;;;;;;;;14.00;95.40;;;;;;5073032;28;19909;-64
2021/08/12 12:06:56;;;;;;;;;;;14.00;95.30;;;;;;5072703;28;19908;-66
2021/08/12 12:09:31;;;;;;;;;;;14.00;95.10;;;;;;5072888;28;20287;-65
2021/08/12 12:11:58;;;;;;;;;;;14.00;94.30;;;;;;5072986;28;19908;-65
2021/08/12 12:14:29;;;;;;;;;;;14.00;93.40;;;;;;5072887;28;19920;-64
2021/08/12 12:17:15;;;;;;;;;;;14.00;93.00;;;;;;5072891;28;19909;-65
2021/08/12 12:20:01;;;;;;;;;;;14.00;92.80;;;;;;5054243;28;19999;-65
2021/08/12 12:22:30;;;;;;;;;;;14.10;93.00;;;;;;5062438;28;19916;-66
2021/08/12 12:25:00;;;;;;;;;;;14.10;93.20;;;;;;5072577;28;19909;-66
2021/08/12 12:27:27;;;;;;;;;;;14.00;93.40;;;;;;5072591;28;19915;-65
2021/08/12 12:30:02;;;;;;;;;;;13.90;93.60;;;;;;5072450;28;19915;-66
2021/08/12 12:32:29;;;;;;;;;;;13.90;93.80;;;;;;5072759;28;20291;-66
2021/08/12 12:34:56;;;;;;;;;;;13.90;94.00;;;;;;5072183;28;19912;-65
2021/08/12 12:37:23;;;;;;;;;;;13.90;94.10;;;;;;5072958;28;19916;-66
2021/08/12 12:39:50;;;;;;;;;;;13.80;94.00;;;;;;5072528;28;19916;-66
2021/08/12 12:42:17;;;;;;;;;;;13.80;94.20;;;;;;5072567;28;20425;-66
2021/08/12 12:45:10;;;;;;;;;;;13.70;94.20;;;;;;5072514;28;19908;-66
2021/08/12 12:47:37;;;;;;;;;;;13.70;94.20;;;;;;5069250;28;19960;-66
2021/08/12 12:50:09;;;;;;;;;;;13.60;94.10;;;;;;5071864;28;19913;-66
2021/08/12 12:52:37;;;;;;;;;;;13.60;94.20;;;;;;5072215;28;20013;-66
2021/08/12 12:55:24;;;;;;;;;;;13.40;94.20;;;;;;5072425;28;19908;-67
2021/08/12 12:57:51;;;;;;;;;;;13.40;94.20;;;;;;5071209;28;20463;-66
2021/08/12 13:00:23;;;;;;;;;;;13.30;94.50;;;;;;5072281;28;20183;-66
2021/08/12 13:02:51;;;;;;;;;;;13.30;94.60;;;;;;5072357;28;19952;-66
2021/08/12 13:05:18;;;;;;;;;;;13.20;94.80;;;;;;5071852;28;19912;-66
2021/08/12 13:07:44;;;;;;;;;;;13.20;95.00;;;;;;5071679;28;19999;-66
2021/08/12 13:10:18;;;;;;;;;;;13.10;95.20;;;;;;5072098;28;20415;-66
2021/08/12 13:12:59;;;;;;;;;;;13.10;95.10;;;;;;5072087;28;19913;-66
2021/08/12 13:15:26;;;;;;;;;;;13.10;95.10;;;;;;5072413;28;19908;-67
2021/08/12 13:18:10;;;;;;;;;;;13.10;95.30;;;;;;5071980;28;19923;-66
2021/08/12 13:20:39;;;;;;;;;;;13.10;95.60;;;;;;5072246;28;19909;-66
2021/08/12 13:23:06;;;;;;;;;;;13.10;95.80;;;;;;5070938;28;19931;-65
2021/08/12 13:25:33;;;;;;;;;;;13.10;95.60;;;;;;5071906;28;19912;-65
2021/08/12 13:28:00;;;;;;;;;;;13.10;95.70;;;;;;5072239;28;20094;-65
2021/08/12 13:30:36;;;;;;;;;;;13.10;95.70;;;;;;5072137;28;19909;-65
2021/08/12 13:33:23;;;;;;;;;;;13.10;95.50;;;;;;5071924;28;20028;-64
2021/08/12 13:35:51;;;;;;;;;;;13.00;95.80;;;;;;5071546;28;19921;-66
2021/08/12 13:38:18;;;;;;;;;;;12.90;95.40;;;;;;5071736;28;20378;-65
2021/08/12 13:40:44;;;;;;;;;;;12.90;95.50;;;;;;5071830;28;19909;-65
2021/08/12 13:43:11;;;;;;;;;;;12.90;95.40;;;;;;5072106;28;19909;-65
2021/08/12 13:45:38;;;;;;;;;;;12.90;95.30;;;;;;5071409;28;19908;-65
2021/08/12 13:48:04;;;;;;;;;;;12.80;94.90;;;;;;5072073;28;19924;-64
2021/08/12 13:50:31;;;;;;;;;;;12.90;94.10;;;;;;5053966;28;19908;-65
2021/08/12 13:52:58;;;;;;;;;;;12.90;94.00;;;;;;5071793;28;19923;-66
2021/08/12 13:55:24;;;;;;;;;;;12.90;93.70;;;;;;5071762;28;19999;-64
2021/08/12 13:57:52;;;;;;;;;;;12.90;93.40;;;;;;5071590;28;20008;-64
2021/08/12 14:00:21;;;;;;;;;;;12.90;93.40;;;;;;5071669;28;19908;-64
2021/08/12 14:02:48;;;;;;;;;;;12.90;93.00;;;;;;5071436;28;19912;-66
2021/08/12 14:05:15;;;;;;;;;;;12.90;92.90;;;;;;5071809;28;19923;-65
2021/08/12 14:07:41;;;;;;;;;;;12.90;92.80;;;;;;5071204;28;19930;-65
2021/08/12 14:10:08;;;;;;;;;;;12.80;92.90;;;;;;5075245;28;20050;-65
2021/08/12 14:12:35;;;;;;;;;;;12.80;92.90;;;;;;5075523;28;20298;-66
2021/08/12 14:15:02;;;;;;;;;;;12.70;93.00;;;;;;5075180;28;20295;-64
2021/08/12 14:17:29;;;;;;;;;;;12.70;93.10;;;;;;5075211;28;19916;-65
2021/08/12 14:19:55;;;;;;;;;;;12.70;93.20;;;;;;5075318;28;19909;-65
2021/08/12 14:22:22;;;;;;;;;;;12.70;93.20;;;;;;5075061;28;19916;-65
2021/08/12 14:24:49;;;;;;;;;;;12.70;93.30;;;;;;5075265;28;19915;-65